Aérodrome :







RETROUVEZ-NOUS SUR...

 
LOGIN :

S'inscrire | Disclaimer

   EN    FR    IT 

 









Légende :    VFR   VFR Marginal   IFR   IFR Intensif   IFR Très Intensif
Visi : 
Plafond : 
>= 8 km
>= 3000ft
5 à 8 km
1000 à 3000 ft
1500m à 5 km
500 à 1000 ft
800 à 1500m
200 à 500 ft
< 800m
< 200 ft
Symboles :   Orages  Brouillard  Fortes neiges  Fortes précipitations  Vent > 20 kt






- Altitude de l'aérodrome : 49 ft


KOWD - Norwood Memorial

DERNIER METAR :
  • 150353Z AUTO 21016G27KT 10SM OVC027 14/08 A2914 RMK AO2 PK WND 21027/0344 SLP868 T01390078

METARs EXPIRÉS :
  • 150253Z AUTO 20014G24KT 10SM BKN019 OVC029 14/10 A2914 RMK AO2 SLP867 T01440100 53002
  • 150240Z AUTO 20012G19KT 10SM FEW012 BKN019 OVC026 15/11 A2914 RMK AO2 T01500106
  • 150216Z AUTO 21013G23KT 10SM BKN014 OVC018 15/11 A2913 RMK AO2 T01500111
  • 150153Z AUTO 20019G27KT 10SM BKN016 OVC021 16/12 A2913 RMK AO2 PK WND 21027/0152 SLP862 T01560117

TAF N/A



MET'MAP, la Météo Aéronautique d'un coup d'oeil ! - Copyright ORBIFLY Décembre 2007 - Disclaimer

ORBIFLY MET'MAP TEAM :

Programmation & Développement : Alexandra Zaïnal
Sur une idée originale de : Baudouin d'Aumeries
Assistance à la programmation : Marc-Olivier Méhu
Soutien technique & logistique : Manuel Goepfert

Contact : metmap@orbifly.com




SOURCES & CREDITS :

   NOAA